createdAt,value
2022-12-25T00:03:28.151Z,28.76
2022-12-25T00:04:28.024Z,28.77
2022-12-25T00:05:27.989Z,28.74
2022-12-25T00:06:27.974Z,28.80
2022-12-25T00:07:27.951Z,28.80
2022-12-25T00:08:27.940Z,28.77
2022-12-25T00:09:27.937Z,28.80
2022-12-25T00:10:27.924Z,28.78
2022-12-25T00:11:27.918Z,28.79
2022-12-25T00:12:27.916Z,28.76
2022-12-25T00:13:27.880Z,28.72
2022-12-25T00:14:27.881Z,28.74
2022-12-25T00:15:27.855Z,28.77
2022-12-25T00:16:27.908Z,28.81
2022-12-25T00:17:27.839Z,28.70
2022-12-25T00:18:27.844Z,28.74
2022-12-25T00:19:27.842Z,28.79
2022-12-25T00:20:27.807Z,28.70
2022-12-25T00:21:27.788Z,28.68
2022-12-25T00:22:27.807Z,28.70
2022-12-25T00:23:27.760Z,28.72
2022-12-25T00:24:27.775Z,28.68
2022-12-25T00:25:27.773Z,28.74
2022-12-25T00:26:27.743Z,28.74
2022-12-25T00:27:27.728Z,28.77
2022-12-25T00:28:27.753Z,28.74
2022-12-25T00:29:27.710Z,28.76
2022-12-25T00:30:27.710Z,28.72
2022-12-25T00:31:27.700Z,28.69
2022-12-25T00:32:27.684Z,28.69
2022-12-25T00:33:27.669Z,28.67
2022-12-25T00:34:27.641Z,28.69
2022-12-25T00:35:27.650Z,28.70
2022-12-25T00:36:27.639Z,28.70
2022-12-25T00:37:27.622Z,28.73
2022-12-25T00:38:27.620Z,28.70
2022-12-25T00:39:27.578Z,28.76
2022-12-25T00:40:27.603Z,28.66
2022-12-25T00:41:27.576Z,28.72
2022-12-25T00:42:27.580Z,28.74
2022-12-25T00:43:27.745Z,28.74
2022-12-25T00:44:27.536Z,28.77
2022-12-25T00:45:27.607Z,28.68
2022-12-25T00:46:27.640Z,28.77
2022-12-25T00:47:27.514Z,28.73
2022-12-25T00:48:27.486Z,28.72
2022-12-25T00:49:27.478Z,28.69
2022-12-25T00:50:27.502Z,28.67
2022-12-25T00:51:27.449Z,28.70
2022-12-25T00:52:27.443Z,28.66
2022-12-25T00:53:27.437Z,28.66
2022-12-25T00:54:27.436Z,28.70
2022-12-25T00:55:27.433Z,28.72
2022-12-25T00:56:27.389Z,28.66
2022-12-25T00:57:27.370Z,28.69
2022-12-25T00:58:27.386Z,28.66
2022-12-25T00:59:27.338Z,28.72
2022-12-25T01:00:27.352Z,28.70
2022-12-25T01:01:27.415Z,28.74
2022-12-25T01:02:27.557Z,28.72
2022-12-25T01:03:27.338Z,28.67
2022-12-25T01:04:27.291Z,28.72
2022-12-25T01:05:27.292Z,28.72
2022-12-25T01:06:27.273Z,28.63
2022-12-25T01:07:27.247Z,28.65
2022-12-25T01:08:27.236Z,28.69
2022-12-25T01:09:27.229Z,28.74
2022-12-25T01:10:27.212Z,28.70
2022-12-25T01:11:27.201Z,28.72
2022-12-25T01:12:27.162Z,28.67
2022-12-25T01:13:27.128Z,28.67
2022-12-25T01:14:27.133Z,28.72
2022-12-25T01:15:27.136Z,28.69
2022-12-25T01:16:27.170Z,28.70
2022-12-25T01:17:27.061Z,28.73
2022-12-25T01:18:27.062Z,28.74
2022-12-25T01:19:27.043Z,28.66
2022-12-25T01:20:27.050Z,28.67
2022-12-25T01:21:27.036Z,28.70
2022-12-25T01:22:26.999Z,28.69
2022-12-25T01:23:26.953Z,28.64
2022-12-25T01:24:27.006Z,28.62
2022-12-25T01:25:26.930Z,28.66
2022-12-25T01:26:26.941Z,28.67
2022-12-25T01:27:26.920Z,28.67
2022-12-25T01:28:26.910Z,28.67
2022-12-25T01:29:26.872Z,28.63
2022-12-25T01:30:26.864Z,28.62
2022-12-25T01:31:26.891Z,28.69
2022-12-25T01:32:26.844Z,28.67
2022-12-25T01:33:26.811Z,28.65
2022-12-25T01:34:26.812Z,28.67
2022-12-25T01:35:26.801Z,28.62
2022-12-25T01:36:26.778Z,28.69
2022-12-25T01:37:26.769Z,28.69
2022-12-25T01:38:26.737Z,28.63
2022-12-25T01:39:26.744Z,28.66
2022-12-25T01:40:26.723Z,28.62
2022-12-25T01:41:26.687Z,28.65
2022-12-25T01:42:26.687Z,28.65
2022-12-25T01:43:26.655Z,28.67
2022-12-25T01:44:26.669Z,28.70
2022-12-25T01:45:26.646Z,28.66
2022-12-25T01:46:26.616Z,28.67
2022-12-25T01:47:26.605Z,28.62
2022-12-25T01:48:26.588Z,28.62
2022-12-25T01:49:26.570Z,28.67
2022-12-25T01:50:26.579Z,28.61
2022-12-25T01:51:26.554Z,28.61
2022-12-25T01:52:26.540Z,28.67
2022-12-25T01:53:26.501Z,28.62
2022-12-25T01:54:26.494Z,28.68
2022-12-25T01:55:26.463Z,28.63
2022-12-25T01:56:26.469Z,28.63
2022-12-25T01:57:26.459Z,28.66
2022-12-25T01:58:26.435Z,28.70
2022-12-25T01:59:26.439Z,28.66
2022-12-25T02:00:26.417Z,28.66
2022-12-25T02:01:26.561Z,28.69
2022-12-25T02:02:26.481Z,28.66
2022-12-25T02:03:26.529Z,28.69
2022-12-25T02:04:26.364Z,28.66
2022-12-25T02:05:26.339Z,28.66
2022-12-25T02:06:26.317Z,28.64
2022-12-25T02:07:26.292Z,28.63
2022-12-25T02:08:26.284Z,28.67
2022-12-25T02:09:26.274Z,28.61
2022-12-25T02:10:26.271Z,28.66
2022-12-25T02:11:26.260Z,28.76
2022-12-25T02:12:26.217Z,28.74
2022-12-25T02:13:26.215Z,28.66
2022-12-25T02:14:26.185Z,28.70
2022-12-25T02:15:26.189Z,28.70
2022-12-25T02:16:26.254Z,28.70
2022-12-25T02:17:26.206Z,28.60
2022-12-25T02:18:26.143Z,28.63
2022-12-25T02:19:26.127Z,28.66
2022-12-25T02:20:26.100Z,28.68
2022-12-25T02:21:26.128Z,28.67
2022-12-25T02:22:26.081Z,28.73
2022-12-25T02:23:26.065Z,28.68
2022-12-25T02:24:26.066Z,28.64
2022-12-25T02:25:26.054Z,28.68
2022-12-25T02:26:26.050Z,28.62
2022-12-25T02:27:26.010Z,28.66
2022-12-25T02:28:26.003Z,28.64
2022-12-25T02:29:25.976Z,28.63
2022-12-25T02:30:25.978Z,28.64
2022-12-25T02:31:26.025Z,28.67
2022-12-25T02:32:25.956Z,28.64
2022-12-25T02:33:25.924Z,28.71
2022-12-25T02:34:25.913Z,28.67
2022-12-25T02:35:25.909Z,28.69
2022-12-25T02:36:25.939Z,28.64
2022-12-25T02:37:25.892Z,28.67
2022-12-25T02:38:25.868Z,28.66
2022-12-25T02:39:25.871Z,28.60
2022-12-25T02:40:25.845Z,28.64
2022-12-25T02:41:25.833Z,28.66
2022-12-25T02:42:25.840Z,28.72
2022-12-25T02:43:25.804Z,28.61
2022-12-25T02:44:25.811Z,28.73
2022-12-25T02:45:25.799Z,28.67
2022-12-25T02:46:25.890Z,28.67
2022-12-25T02:47:25.786Z,28.66
2022-12-25T02:48:25.761Z,28.67
2022-12-25T02:49:25.763Z,28.66
2022-12-25T02:50:25.730Z,28.67
2022-12-25T02:51:25.732Z,28.67
2022-12-25T02:52:25.739Z,28.63
2022-12-25T02:53:25.738Z,28.61
2022-12-25T02:54:25.715Z,28.60
2022-12-25T02:55:25.701Z,28.63
2022-12-25T02:56:25.670Z,28.61
2022-12-25T02:57:25.695Z,28.63
2022-12-25T02:58:25.666Z,28.62
2022-12-25T02:59:25.676Z,28.60
2022-12-25T03:00:25.657Z,28.57
2022-12-25T03:01:25.820Z,28.64
2022-12-25T03:02:25.685Z,28.61
2022-12-25T03:03:25.659Z,28.57
2022-12-25T03:04:25.615Z,28.61
2022-12-25T03:05:25.597Z,28.60
2022-12-25T03:06:25.616Z,28.67
2022-12-25T03:07:25.616Z,28.64
2022-12-25T03:08:25.591Z,28.61
2022-12-25T03:09:25.591Z,28.53
2022-12-25T03:10:25.571Z,28.57
2022-12-25T03:11:25.563Z,28.66
2022-12-25T03:12:25.569Z,28.60
2022-12-25T03:13:25.549Z,28.60
2022-12-25T03:14:25.537Z,28.58
2022-12-25T03:15:25.546Z,28.68
2022-12-25T03:16:25.581Z,28.58
2022-12-25T03:17:25.526Z,28.61
2022-12-25T03:18:25.481Z,28.63
2022-12-25T03:19:25.489Z,28.66
2022-12-25T03:20:25.461Z,28.57
2022-12-25T03:21:25.468Z,28.63
2022-12-25T03:22:25.453Z,28.60
2022-12-25T03:23:25.453Z,28.56
2022-12-25T03:24:25.434Z,28.63
2022-12-25T03:25:25.439Z,28.61
2022-12-25T03:26:25.420Z,28.54
2022-12-25T03:27:25.442Z,28.63
2022-12-25T03:28:25.425Z,28.61
2022-12-25T03:29:30.070Z,28.61
2022-12-25T03:30:26.381Z,28.64
2022-12-25T03:31:25.440Z,28.64
2022-12-25T03:32:25.361Z,28.57
2022-12-25T03:33:44.484Z,28.58
2022-12-25T03:34:26.348Z,28.59
2022-12-25T03:35:25.331Z,28.56
2022-12-25T03:36:25.334Z,28.56
2022-12-25T03:37:25.322Z,28.58
2022-12-25T03:38:25.286Z,28.64
2022-12-25T03:39:25.272Z,28.63
2022-12-25T03:40:25.269Z,28.60
2022-12-25T03:41:25.234Z,28.60
2022-12-25T03:42:25.253Z,28.57
2022-12-25T03:43:25.223Z,28.60
2022-12-25T03:44:25.205Z,28.54
2022-12-25T03:45:25.182Z,28.60
2022-12-25T03:46:25.280Z,28.54
2022-12-25T03:47:25.197Z,28.56
2022-12-25T03:48:25.141Z,28.61
2022-12-25T03:49:25.129Z,28.54
2022-12-25T03:50:25.126Z,28.56
2022-12-25T03:51:25.091Z,28.50
2022-12-25T03:52:25.077Z,28.61
2022-12-25T03:53:25.094Z,28.58
2022-12-25T03:54:25.057Z,28.60
2022-12-25T03:55:25.035Z,28.60
2022-12-25T03:56:25.022Z,28.56
2022-12-25T03:57:25.012Z,28.54
2022-12-25T03:58:25.001Z,28.60
2022-12-25T03:59:25.030Z,28.57
2022-12-25T04:00:24.976Z,28.52
2022-12-25T04:01:25.054Z,28.57
2022-12-25T04:02:25.082Z,28.60
2022-12-25T04:03:24.984Z,28.56
2022-12-25T04:04:24.950Z,28.53
2022-12-25T04:05:24.926Z,28.54
2022-12-25T04:06:24.935Z,28.56
2022-12-25T04:07:24.899Z,28.54
2022-12-25T04:08:24.906Z,28.53
2022-12-25T04:09:24.892Z,28.50
2022-12-25T04:10:24.877Z,28.54
2022-12-25T04:11:24.859Z,28.49
2022-12-25T04:12:24.857Z,28.56
2022-12-25T04:13:24.863Z,28.56
2022-12-25T04:14:24.813Z,28.47
2022-12-25T04:15:24.863Z,28.51
2022-12-25T04:16:24.865Z,28.49
2022-12-25T04:17:24.776Z,28.52
2022-12-25T04:18:24.775Z,28.50
2022-12-25T04:19:24.740Z,28.51
2022-12-25T04:20:24.740Z,28.54
2022-12-25T04:21:24.720Z,28.53
2022-12-25T04:22:24.715Z,28.50
2022-12-25T04:23:24.720Z,28.43
2022-12-25T04:24:24.680Z,28.49
2022-12-25T04:25:24.680Z,28.51
2022-12-25T04:26:24.656Z,28.46
2022-12-25T04:27:24.653Z,28.43
2022-12-25T04:28:24.686Z,28.47
2022-12-25T04:29:24.632Z,28.47
2022-12-25T04:30:24.621Z,28.43
2022-12-25T04:31:24.633Z,28.53
2022-12-25T04:32:24.587Z,28.47
2022-12-25T04:33:24.609Z,28.50
2022-12-25T04:34:24.562Z,28.42
2022-12-25T04:35:24.563Z,28.46
2022-12-25T04:36:24.543Z,28.51
2022-12-25T04:37:24.541Z,28.46
2022-12-25T04:38:24.527Z,28.50
2022-12-25T04:39:24.533Z,28.43
2022-12-25T04:40:24.485Z,28.50
2022-12-25T04:41:24.499Z,28.51
2022-12-25T04:42:24.480Z,28.50
2022-12-25T04:43:24.478Z,28.49
2022-12-25T04:44:24.455Z,28.47
2022-12-25T04:45:24.442Z,28.46
2022-12-25T04:46:24.472Z,28.46
2022-12-25T04:47:24.417Z,28.52
2022-12-25T04:48:24.399Z,28.43
2022-12-25T04:49:24.410Z,28.51
2022-12-25T04:50:24.396Z,28.49
2022-12-25T04:51:24.379Z,28.44
2022-12-25T04:52:24.374Z,28.40
2022-12-25T04:53:24.347Z,28.43
2022-12-25T04:54:24.351Z,28.40
2022-12-25T04:55:24.346Z,28.36
2022-12-25T04:56:24.334Z,28.41
2022-12-25T04:57:24.313Z,28.43
2022-12-25T04:58:24.305Z,28.41
2022-12-25T04:59:24.309Z,28.39
2022-12-25T05:00:24.287Z,28.45
2022-12-25T05:01:24.361Z,28.45
2022-12-25T05:02:24.439Z,28.44
2022-12-25T05:03:24.268Z,28.43
2022-12-25T05:04:24.249Z,28.46
2022-12-25T05:05:24.236Z,28.41
2022-12-25T05:06:24.237Z,28.49
2022-12-25T05:07:24.197Z,28.44
2022-12-25T05:08:24.183Z,28.40
2022-12-25T05:09:24.181Z,28.39
2022-12-25T05:10:24.160Z,28.33
2022-12-25T05:11:24.158Z,28.38
2022-12-25T05:12:24.124Z,28.38
2022-12-25T05:13:24.150Z,28.38
2022-12-25T05:14:24.111Z,28.39
2022-12-25T05:15:24.095Z,28.42
2022-12-25T05:16:24.118Z,28.39
2022-12-25T05:17:24.094Z,28.41
2022-12-25T05:18:24.096Z,28.33
2022-12-25T05:19:24.065Z,28.38
2022-12-25T05:20:24.048Z,28.38
2022-12-25T05:21:24.030Z,28.44
2022-12-25T05:22:24.042Z,28.43
2022-12-25T05:23:24.002Z,28.35
2022-12-25T05:24:24.029Z,28.36
2022-12-25T05:25:23.993Z,28.38
2022-12-25T05:26:24.000Z,28.40
2022-12-25T05:27:23.969Z,28.39
2022-12-25T05:28:23.969Z,28.38
2022-12-25T05:29:23.982Z,28.37
2022-12-25T05:30:23.923Z,28.39
2022-12-25T05:31:24.028Z,28.32
2022-12-25T05:32:23.912Z,28.35
2022-12-25T05:33:23.921Z,28.33
2022-12-25T05:34:23.916Z,28.34
2022-12-25T05:35:23.881Z,28.39
2022-12-25T05:36:23.867Z,28.38
2022-12-25T05:37:23.873Z,28.35
2022-12-25T05:38:23.850Z,28.39
2022-12-25T05:39:23.874Z,28.30
2022-12-25T05:40:23.838Z,28.29
2022-12-25T05:41:25.157Z,28.32
2022-12-25T05:42:23.821Z,28.29
2022-12-25T05:43:23.811Z,28.32
2022-12-25T05:44:23.829Z,28.29
2022-12-25T05:45:23.801Z,28.26
2022-12-25T05:46:23.918Z,28.28
2022-12-25T05:47:23.800Z,28.26
2022-12-25T05:48:23.787Z,28.28
2022-12-25T05:49:23.811Z,28.29
2022-12-25T05:50:23.765Z,28.28
2022-12-25T05:51:23.741Z,28.35
2022-12-25T05:52:23.746Z,28.33
2022-12-25T05:53:23.725Z,28.31
2022-12-25T05:54:23.727Z,28.23
2022-12-25T05:55:23.719Z,28.22
2022-12-25T05:56:23.705Z,28.33
2022-12-25T05:57:23.694Z,28.28
2022-12-25T05:58:23.707Z,28.25
2022-12-25T05:59:23.678Z,28.25
2022-12-25T06:00:23.675Z,28.26
2022-12-25T06:01:23.734Z,28.31
2022-12-25T06:02:23.707Z,28.23
2022-12-25T06:03:23.802Z,28.23
2022-12-25T06:04:23.621Z,28.26
2022-12-25T06:05:23.636Z,28.23
2022-12-25T06:06:23.616Z,28.25
2022-12-25T06:07:23.618Z,28.19
2022-12-25T06:08:23.595Z,28.23
2022-12-25T06:09:23.588Z,28.22
2022-12-25T06:10:23.598Z,28.26
2022-12-25T06:11:23.568Z,28.22
2022-12-25T06:12:23.574Z,28.21
2022-12-25T06:13:23.545Z,28.22
2022-12-25T06:14:23.533Z,28.25
2022-12-25T06:15:23.530Z,28.21
2022-12-25T06:16:23.551Z,28.19
2022-12-25T06:17:23.505Z,28.16
2022-12-25T06:18:23.498Z,28.23
2022-12-25T06:19:23.492Z,28.19
2022-12-25T06:20:23.516Z,28.21
2022-12-25T06:21:23.476Z,28.21
2022-12-25T06:22:23.467Z,28.15
2022-12-25T06:23:23.492Z,28.18
2022-12-25T06:24:23.469Z,28.16
2022-12-25T06:25:23.454Z,28.10
2022-12-25T06:26:23.431Z,28.16
2022-12-25T06:27:23.431Z,28.13
2022-12-25T06:28:23.439Z,28.12
2022-12-25T06:29:23.411Z,28.15
2022-12-25T06:30:23.422Z,28.11
2022-12-25T06:31:23.471Z,28.19
2022-12-25T06:32:23.409Z,28.16
2022-12-25T06:33:23.392Z,28.16
2022-12-25T06:34:23.411Z,28.16
2022-12-25T06:35:23.397Z,28.11
2022-12-25T06:36:23.401Z,28.12
2022-12-25T06:37:23.372Z,28.11
2022-12-25T06:38:23.375Z,28.13
2022-12-25T06:39:23.378Z,28.15
2022-12-25T06:40:23.375Z,28.15
2022-12-25T06:41:23.352Z,28.16
2022-12-25T06:42:23.354Z,28.15
2022-12-25T06:43:23.366Z,28.18
2022-12-25T06:44:23.340Z,28.15
2022-12-25T06:45:23.528Z,28.15
2022-12-25T06:46:23.425Z,28.11
2022-12-25T06:47:23.311Z,28.11
2022-12-25T06:48:23.311Z,28.06
2022-12-25T06:49:23.343Z,28.08
2022-12-25T06:50:23.297Z,28.08
2022-12-25T06:51:23.305Z,28.08
2022-12-25T06:52:23.301Z,28.07
2022-12-25T06:53:23.280Z,28.07
2022-12-25T06:54:23.268Z,28.07
2022-12-25T06:55:23.275Z,28.07
2022-12-25T06:56:23.272Z,28.03
2022-12-25T06:57:23.249Z,28.08
2022-12-25T06:58:23.250Z,28.12
2022-12-25T06:59:23.229Z,28.05
2022-12-25T07:00:23.222Z,28.11
2022-12-25T07:01:23.549Z,28.05
2022-12-25T07:02:23.315Z,28.09
2022-12-25T07:03:23.243Z,28.07
2022-12-25T07:04:23.187Z,28.09
2022-12-25T07:05:23.169Z,28.06
2022-12-25T07:06:23.160Z,28.00
2022-12-25T07:07:23.160Z,28.01
2022-12-25T07:08:23.146Z,28.03
2022-12-25T07:09:23.135Z,27.98
2022-12-25T07:10:23.115Z,28.00
2022-12-25T07:11:23.116Z,28.00
2022-12-25T07:12:23.090Z,28.04
2022-12-25T07:13:23.100Z,27.98
2022-12-25T07:14:24.537Z,27.97
2022-12-25T07:15:23.059Z,28.01
2022-12-25T07:16:23.060Z,28.01
2022-12-25T07:17:23.028Z,27.97
2022-12-25T07:18:23.040Z,27.98
2022-12-25T07:19:23.017Z,27.94
2022-12-25T07:20:22.990Z,27.97
2022-12-25T07:21:23.000Z,27.96
2022-12-25T07:22:22.975Z,27.94
2022-12-25T07:23:22.986Z,27.94
2022-12-25T07:24:22.968Z,27.97
2022-12-25T07:25:22.956Z,27.91
2022-12-25T07:26:22.929Z,27.93
2022-12-25T07:27:22.903Z,27.94
2022-12-25T07:28:22.906Z,27.93
2022-12-25T07:29:22.886Z,27.93
2022-12-25T07:30:22.871Z,27.93
2022-12-25T07:31:22.892Z,27.97
2022-12-25T07:32:22.869Z,27.93
2022-12-25T07:33:22.835Z,27.88
2022-12-25T07:34:22.830Z,27.94
2022-12-25T07:35:22.820Z,27.93
2022-12-25T07:36:22.819Z,27.93
2022-12-25T07:37:22.805Z,27.90
2022-12-25T07:38:22.806Z,27.93
2022-12-25T07:39:22.780Z,27.98
2022-12-25T07:40:22.759Z,27.94
2022-12-25T07:41:22.777Z,27.91
2022-12-25T07:42:25.293Z,27.94
2022-12-25T07:43:22.723Z,27.90
2022-12-25T07:44:22.740Z,27.93
2022-12-25T07:45:22.717Z,27.91
2022-12-25T07:46:22.730Z,27.93
2022-12-25T07:47:22.700Z,27.90
2022-12-25T07:48:22.667Z,27.97
2022-12-25T07:49:22.730Z,27.88
2022-12-25T07:50:22.654Z,27.90
2022-12-25T07:51:22.630Z,27.87
2022-12-25T07:52:22.652Z,27.90
2022-12-25T07:53:22.607Z,27.85
2022-12-25T07:54:22.605Z,27.86
2022-12-25T07:55:22.611Z,27.85
2022-12-25T07:56:22.604Z,27.85
2022-12-25T07:57:22.582Z,27.85
2022-12-25T07:58:23.626Z,27.83
2022-12-25T07:59:22.544Z,27.87
2022-12-25T08:00:22.539Z,27.87
2022-12-25T08:01:22.731Z,27.82
2022-12-25T08:02:22.720Z,27.84
2022-12-25T08:03:22.769Z,27.85
2022-12-25T08:04:22.532Z,27.80
2022-12-25T08:05:22.476Z,27.76
2022-12-25T08:06:22.476Z,27.84
2022-12-25T08:07:22.482Z,27.83
2022-12-25T08:08:22.451Z,27.85
2022-12-25T08:09:22.435Z,27.86
2022-12-25T08:10:22.436Z,27.83
2022-12-25T08:11:22.416Z,27.77
2022-12-25T08:12:22.434Z,27.77
2022-12-25T08:13:22.397Z,27.72
2022-12-25T08:14:22.390Z,27.76
2022-12-25T08:15:22.377Z,27.76
2022-12-25T08:16:22.420Z,27.75
2022-12-25T08:17:22.365Z,27.73
2022-12-25T08:18:29.513Z,27.76
2022-12-25T08:19:23.318Z,27.75
2022-12-25T08:20:22.311Z,27.73
2022-12-25T08:21:22.322Z,27.73
2022-12-25T08:22:22.320Z,27.69
2022-12-25T08:23:22.303Z,27.70
2022-12-25T08:24:22.281Z,27.70
2022-12-25T08:25:22.248Z,27.76
2022-12-25T08:26:22.238Z,27.75
2022-12-25T08:27:22.236Z,27.75
2022-12-25T08:28:22.227Z,27.75
2022-12-25T08:29:22.192Z,27.75
2022-12-25T08:30:22.200Z,27.73
2022-12-25T08:31:22.229Z,27.77
2022-12-25T08:32:22.169Z,27.76
2022-12-25T08:33:22.143Z,27.73
2022-12-25T08:34:22.150Z,27.72
2022-12-25T08:35:22.151Z,27.73
2022-12-25T08:36:22.134Z,27.73
2022-12-25T08:37:22.136Z,27.75
2022-12-25T08:38:22.122Z,27.73
2022-12-25T08:39:22.111Z,27.69
2022-12-25T08:40:22.094Z,27.69
2022-12-25T08:41:22.108Z,27.69
2022-12-25T08:42:22.101Z,27.68
2022-12-25T08:43:22.054Z,27.68
2022-12-25T08:44:22.045Z,27.69
2022-12-25T08:45:22.050Z,27.72
2022-12-25T08:46:22.060Z,27.68
2022-12-25T08:47:22.060Z,27.69
2022-12-25T08:48:22.010Z,27.73
2022-12-25T08:49:21.968Z,27.70
2022-12-25T08:50:21.981Z,27.78
2022-12-25T08:51:21.981Z,27.79
2022-12-25T08:52:21.948Z,27.78
2022-12-25T08:53:21.944Z,27.73
2022-12-25T08:54:21.925Z,27.74
2022-12-25T08:55:21.890Z,27.71
2022-12-25T08:56:21.882Z,27.76
2022-12-25T08:57:21.874Z,27.80
2022-12-25T08:58:21.839Z,27.83
2022-12-25T08:59:21.822Z,27.86
2022-12-25T09:00:21.792Z,27.87
2022-12-25T09:01:21.865Z,27.85
2022-12-25T09:02:21.912Z,27.81
2022-12-25T09:03:21.783Z,27.83
2022-12-25T09:04:21.725Z,27.90
2022-12-25T09:05:21.693Z,27.85
2022-12-25T09:06:21.668Z,27.86
2022-12-25T09:07:21.657Z,27.86
2022-12-25T09:08:21.652Z,27.80
2022-12-25T09:09:21.612Z,27.72
2022-12-25T09:10:21.577Z,27.67
2022-12-25T09:11:21.551Z,27.70
2022-12-25T09:12:21.543Z,27.63
2022-12-25T09:13:21.549Z,27.64
2022-12-25T09:14:21.505Z,27.66
2022-12-25T09:15:21.486Z,27.65
2022-12-25T09:16:21.546Z,27.59
2022-12-25T09:17:21.439Z,27.55
2022-12-25T09:18:21.443Z,27.51
2022-12-25T09:19:21.407Z,27.44
2022-12-25T09:20:21.419Z,27.44
2022-12-25T09:21:21.354Z,27.46
2022-12-25T09:22:21.338Z,27.43
2022-12-25T09:23:21.346Z,27.45
2022-12-25T09:24:21.305Z,27.38
2022-12-25T09:25:21.270Z,27.35
2022-12-25T09:26:21.254Z,27.33
2022-12-25T09:27:21.237Z,27.27
2022-12-25T09:28:21.238Z,27.26
2022-12-25T09:29:21.180Z,27.25
2022-12-25T09:30:21.192Z,27.17
2022-12-25T09:31:21.302Z,27.21
2022-12-25T09:32:21.119Z,27.14
2022-12-25T09:33:21.133Z,27.11
2022-12-25T09:34:21.075Z,27.09
2022-12-25T09:35:21.063Z,27.09
2022-12-25T09:36:21.039Z,27.04
2022-12-25T09:37:21.036Z,27.05
2022-12-25T09:38:20.994Z,27.02
2022-12-25T09:39:20.965Z,27.00
2022-12-25T09:40:20.960Z,26.97
2022-12-25T09:41:20.921Z,26.95
2022-12-25T09:42:20.888Z,26.95
2022-12-25T09:43:20.884Z,26.96
2022-12-25T09:44:20.853Z,26.92
2022-12-25T09:45:20.830Z,26.84
2022-12-25T09:46:20.858Z,26.84
2022-12-25T09:47:20.774Z,26.83
2022-12-25T09:48:20.736Z,26.80
2022-12-25T09:49:20.695Z,26.71
2022-12-25T09:50:20.729Z,26.71
2022-12-25T09:51:20.639Z,26.64
2022-12-25T09:52:20.642Z,26.62
2022-12-25T09:53:20.599Z,26.47
2022-12-25T09:54:20.555Z,26.32
2022-12-25T09:55:21.188Z,26.18
2022-12-25T09:56:20.500Z,26.12
2022-12-25T09:57:20.463Z,25.97
2022-12-25T09:58:20.424Z,25.94
2022-12-25T09:59:20.381Z,25.76
2022-12-25T10:00:20.411Z,25.73
2022-12-25T10:01:20.500Z,25.76
2022-12-25T10:02:20.442Z,25.77
2022-12-25T10:03:20.313Z,25.62
2022-12-25T10:04:20.172Z,25.48
2022-12-25T10:05:20.138Z,25.57
2022-12-25T11:03:17.628Z,25.24
2022-12-25T11:07:17.255Z,25.16
2022-12-25T11:12:17.009Z,25.06
2022-12-25T11:22:16.491Z,25.00
2022-12-25T11:24:16.376Z,24.97
2022-12-25T11:29:16.089Z,24.98
2022-12-25T11:30:16.311Z,24.95
2022-12-25T11:39:15.597Z,25.04
2022-12-25T11:45:15.290Z,25.01
2022-12-25T11:51:15.014Z,25.02
2022-12-25T11:56:14.777Z,25.06
2022-12-25T11:57:14.720Z,25.07
2022-12-25T12:09:14.198Z,25.15
2022-12-25T12:10:14.155Z,25.19
2022-12-25T12:11:14.105Z,25.19
2022-12-25T12:12:14.050Z,25.22
2022-12-25T12:13:14.017Z,25.22
2022-12-25T12:14:13.973Z,25.20
2022-12-25T12:15:13.932Z,25.23
2022-12-25T12:16:13.955Z,25.24
2022-12-25T12:17:13.847Z,25.23
2022-12-25T12:18:13.787Z,25.23
2022-12-25T12:19:13.769Z,25.24
2022-12-25T12:20:13.710Z,25.26
2022-12-25T12:21:13.703Z,25.26
2022-12-25T12:22:13.626Z,25.26
2022-12-25T12:23:13.606Z,25.24
2022-12-25T12:24:13.565Z,25.24
2022-12-25T12:25:13.523Z,25.28
2022-12-25T12:26:13.490Z,25.29
2022-12-25T12:27:13.419Z,25.20
2022-12-25T12:28:13.372Z,25.22
2022-12-25T12:29:13.347Z,25.20
2022-12-25T12:30:13.291Z,25.23
2022-12-25T12:31:13.321Z,25.20
2022-12-25T12:32:13.246Z,25.17
2022-12-25T12:33:13.146Z,25.19
2022-12-25T12:34:13.112Z,25.16
2022-12-25T12:35:13.055Z,25.15
2022-12-25T12:36:13.039Z,25.18
2022-12-25T12:37:12.997Z,25.09
2022-12-25T12:38:12.931Z,25.08
2022-12-25T12:39:12.898Z,25.11
2022-12-25T12:40:12.856Z,25.11
2022-12-25T12:41:12.791Z,25.07
2022-12-25T12:42:12.750Z,25.12
2022-12-25T12:43:12.691Z,25.08
2022-12-25T12:44:12.654Z,25.04
2022-12-25T12:45:12.614Z,25.05
2022-12-25T12:46:12.616Z,25.09
2022-12-25T12:47:12.499Z,25.03
2022-12-25T12:48:12.439Z,25.04
2022-12-25T12:49:12.391Z,25.00
2022-12-25T12:50:12.348Z,25.05
2022-12-25T12:51:12.313Z,24.99
2022-12-25T12:52:12.235Z,24.98
2022-12-25T12:53:12.193Z,24.99
2022-12-25T12:54:12.151Z,24.99
2022-12-25T12:55:12.102Z,25.02
2022-12-25T12:56:12.061Z,25.00
2022-12-25T12:57:12.003Z,24.99
2022-12-25T12:58:11.959Z,24.99
2022-12-25T12:59:11.921Z,24.93
2022-12-25T13:00:11.841Z,24.96
2022-12-25T13:01:11.849Z,24.97
2022-12-25T13:02:11.815Z,24.95
2022-12-25T13:03:11.748Z,24.93
2022-12-25T13:04:11.670Z,24.92
2022-12-25T13:05:11.646Z,24.91
2022-12-25T13:06:11.567Z,24.90
2022-12-25T13:07:11.525Z,24.89
2022-12-25T13:08:11.479Z,24.89
2022-12-25T13:09:11.453Z,24.91
2022-12-25T13:10:11.367Z,24.88
2022-12-25T13:11:11.339Z,24.91
2022-12-25T13:12:11.308Z,24.91
2022-12-25T13:13:11.238Z,24.91
2022-12-25T13:14:11.177Z,24.87
2022-12-25T13:15:11.127Z,24.87
2022-12-25T13:16:11.134Z,24.88
2022-12-25T13:17:11.052Z,24.81
2022-12-25T13:18:10.973Z,24.88
2022-12-25T13:19:10.940Z,24.84
2022-12-25T13:20:10.890Z,24.84
2022-12-25T13:21:10.841Z,24.88
2022-12-25T13:22:10.840Z,24.88
2022-12-25T13:23:10.764Z,24.87
2022-12-25T13:24:10.700Z,24.85
2022-12-25T13:25:10.660Z,24.84
2022-12-25T13:26:10.616Z,24.90
2022-12-25T13:27:10.583Z,24.88
2022-12-25T13:28:10.507Z,24.91
2022-12-25T13:29:11.801Z,24.85
2022-12-25T13:30:10.398Z,24.87
2022-12-25T13:31:10.344Z,24.91
2022-12-25T13:32:10.392Z,24.89
2022-12-25T13:33:10.343Z,24.95
2022-12-25T13:34:10.213Z,24.96
2022-12-25T13:35:10.174Z,24.96
2022-12-25T13:36:10.133Z,25.00
2022-12-25T13:37:10.079Z,25.04
2022-12-25T13:38:10.056Z,25.06
2022-12-25T13:39:09.989Z,25.06
2022-12-25T13:40:09.921Z,25.09
2022-12-25T13:41:09.877Z,25.08
2022-12-25T13:42:09.863Z,25.11
2022-12-25T13:43:09.814Z,25.13
2022-12-25T13:44:09.748Z,25.16
2022-12-25T13:45:09.704Z,25.21
2022-12-25T13:46:09.705Z,25.22
2022-12-25T13:47:09.624Z,25.26
2022-12-25T13:48:09.621Z,25.29
2022-12-25T13:49:09.529Z,25.34
2022-12-25T13:50:09.486Z,25.34
2022-12-25T13:51:09.430Z,25.31
2022-12-25T13:52:09.390Z,25.34
2022-12-25T13:53:09.354Z,25.38
2022-12-25T13:54:09.323Z,25.36
2022-12-25T13:55:09.271Z,25.39
2022-12-25T13:56:09.233Z,25.44
2022-12-25T13:57:09.198Z,25.47
2022-12-25T13:58:09.149Z,25.51
2022-12-25T13:59:09.096Z,25.48
2022-12-25T14:00:09.053Z,25.48
2022-12-25T14:01:09.050Z,25.52
2022-12-25T14:02:09.291Z,25.52
2022-12-25T14:03:08.977Z,25.53
2022-12-25T14:04:08.898Z,25.59
2022-12-25T14:05:08.850Z,25.57
2022-12-25T14:06:08.809Z,25.57
2022-12-25T14:07:08.789Z,25.61
2022-12-25T14:08:08.785Z,25.60
2022-12-25T14:09:08.689Z,25.60
2022-12-25T14:10:08.658Z,25.64
2022-12-25T14:11:08.620Z,25.65
2022-12-25T14:12:10.774Z,25.63
2022-12-25T14:13:09.530Z,25.63
2022-12-25T14:14:08.494Z,25.66
2022-12-25T14:15:08.462Z,25.66
2022-12-25T14:16:08.407Z,25.68
2022-12-25T14:17:08.421Z,25.69
2022-12-25T14:18:08.321Z,25.63
2022-12-25T14:19:08.282Z,25.65
2022-12-25T14:20:08.929Z,25.69
2022-12-25T14:21:08.213Z,25.70
2022-12-25T14:22:08.196Z,25.69
2022-12-25T14:23:08.127Z,25.71
2022-12-25T14:24:08.081Z,25.71
2022-12-25T14:25:08.047Z,25.73
2022-12-25T14:26:08.014Z,25.75
2022-12-25T14:27:07.996Z,25.74
2022-12-25T14:28:07.959Z,25.73
2022-12-25T14:29:11.051Z,25.74
2022-12-25T14:30:08.892Z,25.76
2022-12-25T14:31:07.898Z,25.75
2022-12-25T14:32:07.788Z,25.76
2022-12-25T14:33:07.760Z,25.79
2022-12-25T14:34:07.710Z,25.79
2022-12-25T14:35:07.686Z,25.77
2022-12-25T14:36:07.648Z,25.82
2022-12-25T14:37:07.628Z,25.83
2022-12-25T14:38:07.584Z,25.81
2022-12-25T14:39:07.545Z,25.80
2022-12-25T14:40:07.494Z,25.83
2022-12-25T14:41:07.493Z,25.86
2022-12-25T14:42:07.447Z,25.84
2022-12-25T14:43:07.425Z,25.80
2022-12-25T14:44:07.401Z,25.90
2022-12-25T14:45:07.330Z,25.83
2022-12-25T14:46:07.418Z,25.88